createdAt,value
2023-02-04T00:00:07.628Z,100.00
2023-02-04T00:02:34.752Z,100.00
2023-02-04T00:05:01.779Z,100.00
2023-02-04T00:07:28.579Z,100.00
2023-02-04T00:09:55.502Z,100.00
2023-02-04T00:12:22.846Z,100.00
2023-02-04T00:14:49.795Z,100.00
2023-02-04T00:17:16.865Z,100.00
2023-02-04T00:19:43.803Z,100.00
2023-02-04T00:22:10.951Z,100.00
2023-02-04T00:24:38.352Z,100.00
2023-02-04T00:27:06.281Z,100.00
2023-02-04T00:29:33.105Z,100.00
2023-02-04T00:32:00.120Z,100.00
2023-02-04T00:34:27.044Z,100.00
2023-02-04T00:36:53.832Z,100.00
2023-02-04T00:39:20.546Z,100.00
2023-02-04T00:41:47.176Z,100.00
2023-02-04T00:44:16.820Z,100.00
2023-02-04T00:46:43.803Z,100.00
2023-02-04T00:49:11.319Z,100.00
2023-02-04T00:51:40.594Z,100.00
2023-02-04T00:54:12.315Z,100.00
2023-02-04T00:56:55.184Z,100.00
2023-02-04T00:59:26.261Z,100.00
2023-02-04T01:01:59.518Z,100.00
2023-02-04T01:04:31.023Z,100.00
2023-02-04T01:07:08.912Z,100.00
2023-02-04T01:09:40.073Z,100.00
2023-02-04T01:12:08.740Z,100.00
2023-02-04T01:14:41.234Z,100.00
2023-02-04T01:17:17.359Z,100.00
2023-02-04T01:19:47.773Z,100.00
2023-02-04T01:22:15.727Z,100.00
2023-02-04T01:24:47.270Z,100.00
2023-02-04T01:27:27.361Z,100.00
2023-02-04T01:30:01.844Z,100.00
2023-02-04T01:32:30.119Z,100.00
2023-02-04T01:35:01.370Z,100.00
2023-02-04T01:37:36.183Z,100.00
2023-02-04T01:40:08.325Z,100.00
2023-02-04T01:42:36.930Z,100.00
2023-02-04T01:45:09.253Z,100.00
2023-02-04T01:47:42.125Z,100.00
2023-02-04T01:50:14.712Z,100.00
2023-02-04T01:52:46.326Z,100.00
2023-02-04T01:55:20.284Z,100.00
2023-02-04T01:57:49.113Z,100.00
2023-02-04T02:00:32.137Z,100.00
2023-02-04T02:03:09.089Z,100.00
2023-02-04T02:05:44.320Z,100.00
2023-02-04T02:08:18.069Z,100.00
2023-02-04T02:10:48.557Z,100.00
2023-02-04T02:13:20.346Z,100.00
2023-02-04T02:15:59.348Z,100.00
2023-02-04T02:18:30.204Z,100.00
2023-02-04T02:21:01.266Z,100.00
2023-02-04T02:23:48.750Z,100.00
2023-02-04T02:26:19.352Z,100.00
2023-02-04T02:28:52.313Z,100.00
2023-02-04T02:31:25.936Z,100.00
2023-02-04T02:34:14.317Z,100.00
2023-02-04T02:36:49.091Z,100.00
2023-02-04T02:39:20.218Z,100.00
2023-02-04T02:41:51.260Z,100.00
2023-02-04T02:44:27.518Z,100.00
2023-02-04T02:46:56.140Z,100.00
2023-02-04T02:49:24.895Z,100.00
2023-02-04T02:51:54.853Z,100.00
2023-02-04T02:57:25.766Z,100.00
2023-02-04T02:59:57.126Z,100.00
2023-02-04T03:02:36.969Z,100.00
2023-02-04T03:05:15.649Z,100.00
2023-02-04T03:07:42.572Z,100.00
2023-02-04T03:10:11.815Z,100.00
2023-02-04T03:12:39.335Z,100.00
2023-02-04T03:15:14.870Z,100.00
2023-02-04T03:17:46.098Z,100.00
2023-02-04T03:20:17.924Z,100.00
2023-02-04T03:22:45.690Z,100.00
2023-02-04T03:25:30.072Z,100.00
2023-02-04T03:28:02.991Z,100.00
2023-02-04T03:30:34.489Z,100.00
2023-02-04T03:33:09.099Z,100.00
2023-02-04T03:35:36.834Z,100.00
2023-02-04T03:38:07.596Z,100.00
2023-02-04T03:40:34.899Z,100.00
2023-02-04T03:43:02.256Z,100.00
2023-02-04T03:45:45.393Z,100.00
2023-02-04T03:48:14.698Z,100.00
2023-02-04T03:50:42.528Z,100.00
2023-02-04T03:53:10.387Z,100.00
2023-02-04T03:55:38.009Z,100.00
2023-02-04T03:58:08.330Z,100.00
2023-02-04T04:00:36.458Z,100.00
2023-02-04T04:03:11.799Z,100.00
2023-02-04T04:05:43.833Z,100.00
2023-02-04T04:08:17.227Z,100.00
2023-02-04T04:10:45.387Z,100.00
2023-02-04T04:13:26.171Z,100.00
2023-02-04T04:16:11.137Z,100.00
2023-02-04T04:18:39.571Z,100.00
2023-02-04T04:21:11.880Z,100.00
2023-02-04T04:23:39.250Z,100.00
2023-02-04T04:26:18.973Z,100.00
2023-02-04T04:28:53.853Z,100.00
2023-02-04T04:31:36.058Z,100.00
2023-02-04T04:34:10.549Z,100.00
2023-02-04T04:36:44.647Z,100.00
2023-02-04T04:39:19.106Z,100.00
2023-02-04T04:41:55.831Z,100.00
2023-02-04T04:44:28.064Z,100.00
2023-02-04T04:47:04.706Z,100.00
2023-02-04T04:52:37.688Z,100.00
2023-02-04T04:57:58.576Z,100.00
2023-02-04T05:00:36.077Z,100.00
2023-02-04T05:03:05.411Z,100.00
2023-02-04T05:06:14.127Z,100.00
2023-02-04T05:08:31.881Z,100.00
2023-02-04T05:11:05.802Z,100.00
2023-02-04T05:13:32.579Z,100.00
2023-02-04T05:15:59.649Z,100.00
2023-02-04T05:18:26.565Z,100.00
2023-02-04T05:20:53.595Z,100.00
2023-02-04T05:23:20.421Z,100.00
2023-02-04T05:25:47.858Z,100.00
2023-02-04T05:28:16.884Z,100.00
2023-02-04T05:30:45.515Z,100.00
2023-02-04T05:33:14.226Z,100.00
2023-02-04T05:35:42.106Z,100.00
2023-02-04T05:38:08.984Z,100.00
2023-02-04T05:40:37.001Z,100.00
2023-02-04T05:43:05.044Z,100.00
2023-02-04T05:45:32.829Z,100.00
2023-02-04T05:47:59.740Z,100.00
2023-02-04T05:50:27.518Z,100.00
2023-02-04T05:52:54.227Z,100.00
2023-02-04T05:55:21.185Z,100.00
2023-02-04T05:57:47.966Z,100.00
2023-02-04T06:00:15.167Z,100.00
2023-02-04T06:02:41.938Z,100.00
2023-02-04T06:05:09.102Z,100.00
2023-02-04T06:07:35.846Z,100.00
2023-02-04T06:10:02.633Z,100.00
2023-02-04T06:12:29.509Z,100.00
2023-02-04T06:14:56.303Z,100.00
2023-02-04T06:17:23.134Z,100.00
2023-02-04T06:19:49.773Z,100.00
2023-02-04T06:22:16.553Z,100.00
2023-02-04T06:24:43.160Z,100.00
2023-02-04T06:27:11.382Z,100.00
2023-02-04T06:29:38.233Z,100.00
2023-02-04T06:32:05.769Z,100.00
2023-02-04T06:34:32.921Z,100.00
2023-02-04T06:37:01.703Z,100.00
2023-02-04T06:39:28.530Z,100.00
2023-02-04T06:41:55.235Z,100.00
2023-02-04T06:44:21.988Z,100.00
2023-02-04T06:46:48.785Z,100.00
2023-02-04T06:49:15.465Z,100.00
2023-02-04T06:51:42.182Z,100.00
2023-02-04T06:54:08.906Z,100.00
2023-02-04T06:56:35.617Z,100.00
2023-02-04T06:59:03.464Z,100.00
2023-02-04T07:01:30.489Z,100.00
2023-02-04T07:03:57.317Z,100.00
2023-02-04T07:06:24.099Z,100.00
2023-02-04T07:08:50.906Z,100.00
2023-02-04T07:11:17.611Z,100.00
2023-02-04T07:13:44.288Z,100.00
2023-02-04T07:16:11.105Z,100.00
2023-02-04T07:18:37.850Z,100.00
2023-02-04T07:21:04.661Z,100.00
2023-02-04T07:23:31.351Z,100.00
2023-02-04T07:25:59.553Z,100.00
2023-02-04T07:28:26.375Z,100.00
2023-02-04T07:30:53.236Z,100.00
2023-02-04T07:33:20.839Z,100.00
2023-02-04T07:35:52.393Z,100.00
2023-02-04T07:38:19.211Z,100.00
2023-02-04T07:40:46.642Z,100.00
2023-02-04T07:43:13.487Z,100.00
2023-02-04T07:45:42.976Z,100.00
2023-02-04T07:48:10.753Z,100.00
2023-02-04T07:50:37.675Z,100.00
2023-02-04T07:53:04.413Z,100.00
2023-02-04T07:55:31.227Z,100.00
2023-02-04T07:57:58.072Z,100.00
2023-02-04T08:00:24.709Z,100.00
2023-02-04T08:02:52.232Z,100.00
2023-02-04T08:05:19.101Z,100.00
2023-02-04T08:07:45.894Z,100.00
2023-02-04T08:10:13.071Z,100.00
2023-02-04T08:12:39.953Z,100.00
2023-02-04T08:15:10.119Z,100.00
2023-02-04T08:17:36.841Z,100.00
2023-02-04T08:20:03.792Z,100.00
2023-02-04T08:22:30.458Z,100.00
2023-02-04T08:24:57.237Z,100.00
2023-02-04T08:27:23.921Z,100.00
2023-02-04T08:29:50.759Z,100.00
2023-02-04T08:32:17.465Z,100.00
2023-02-04T08:34:44.317Z,100.00
2023-02-04T08:37:11.063Z,100.00
2023-02-04T08:39:39.043Z,100.00
2023-02-04T08:42:05.565Z,100.00
2023-02-04T08:44:32.689Z,100.00
2023-02-04T08:47:02.776Z,100.00
2023-02-04T08:49:30.290Z,100.00
2023-02-04T08:51:56.997Z,100.00
2023-02-04T08:54:23.758Z,100.00
2023-02-04T08:56:50.440Z,100.00
2023-02-04T08:59:17.093Z,100.00
2023-02-04T09:01:49.661Z,100.00
2023-02-04T09:04:17.669Z,100.00
2023-02-04T09:06:44.695Z,100.00
2023-02-04T09:09:11.540Z,100.00
2023-02-04T09:11:38.293Z,100.00
2023-02-04T09:14:05.163Z,100.00
2023-02-04T09:16:32.311Z,100.00
2023-02-04T09:18:59.156Z,100.00
2023-02-04T09:21:26.475Z,100.00
2023-02-04T09:23:53.170Z,100.00
2023-02-04T09:26:19.990Z,100.00
2023-02-04T09:28:48.050Z,100.00
2023-02-04T09:31:15.295Z,100.00
2023-02-04T09:33:42.341Z,100.00
2023-02-04T09:36:09.997Z,100.00
2023-02-04T09:38:36.817Z,100.00
2023-02-04T09:41:10.788Z,100.00
2023-02-04T09:43:42.987Z,100.00
2023-02-04T09:46:23.220Z,100.00
2023-02-04T09:48:50.888Z,100.00
2023-02-04T09:51:22.932Z,100.00
2023-02-04T09:53:51.616Z,100.00
2023-02-04T09:56:19.456Z,100.00
2023-02-04T09:58:46.464Z,100.00
2023-02-04T10:01:19.032Z,100.00
2023-02-04T10:03:47.915Z,100.00
2023-02-04T10:06:17.323Z,100.00
2023-02-04T10:08:45.589Z,100.00
2023-02-04T10:11:13.523Z,100.00
2023-02-04T10:13:50.448Z,100.00
2023-02-04T10:16:21.792Z,100.00
2023-02-04T10:18:48.760Z,100.00
2023-02-04T10:21:17.473Z,100.00
2023-02-04T10:23:47.952Z,100.00
2023-02-04T10:26:15.950Z,100.00
2023-02-04T10:28:43.090Z,100.00
2023-02-04T10:31:29.309Z,100.00
2023-02-04T10:34:18.526Z,100.00
2023-02-04T10:36:51.501Z,100.00
2023-02-04T10:39:21.709Z,100.00
2023-02-04T10:41:51.685Z,100.00
2023-02-04T10:44:21.469Z,100.00
2023-02-04T10:46:48.533Z,100.00
2023-02-04T10:49:21.525Z,100.00
2023-02-04T10:51:50.668Z,100.00
2023-02-04T10:54:31.683Z,100.00
2023-02-04T10:57:11.989Z,100.00
2023-02-04T10:59:39.129Z,100.00
2023-02-04T11:02:22.500Z,100.00
2023-02-04T11:04:49.255Z,100.00
2023-02-04T11:07:16.142Z,100.00
2023-02-04T11:09:44.424Z,100.00
2023-02-04T11:12:22.919Z,100.00
2023-02-04T11:14:57.497Z,100.00
2023-02-04T11:17:32.160Z,100.00
2023-02-04T11:20:02.622Z,100.00
2023-02-04T11:22:44.204Z,100.00
2023-02-04T11:25:38.280Z,100.00
2023-02-04T11:28:52.926Z,100.00
2023-02-04T11:31:19.730Z,100.00
2023-02-04T11:33:47.536Z,100.00
2023-02-04T11:36:17.023Z,100.00
2023-02-04T11:38:49.906Z,100.00
2023-02-04T11:41:27.345Z,100.00
2023-02-04T11:43:56.364Z,100.00
2023-02-04T11:46:26.995Z,100.00
2023-02-04T11:48:57.196Z,100.00
2023-02-04T11:51:31.461Z,100.00
2023-02-04T11:54:01.603Z,100.00
2023-02-04T11:56:30.612Z,100.00
2023-02-04T11:58:58.683Z,100.00
2023-02-04T12:01:31.564Z,100.00
2023-02-04T12:04:01.021Z,100.00
2023-02-04T12:06:30.884Z,100.00
2023-02-04T12:09:24.257Z,100.00
2023-02-04T12:12:02.075Z,100.00
2023-02-04T12:14:39.235Z,100.00
2023-02-04T12:17:20.163Z,100.00
2023-02-04T12:19:47.392Z,100.00
2023-02-04T12:22:18.552Z,100.00
2023-02-04T12:24:45.389Z,100.00
2023-02-04T12:27:12.342Z,100.00
2023-02-04T12:29:39.033Z,100.00
2023-02-04T12:32:07.124Z,100.00
2023-02-04T12:34:33.985Z,100.00
2023-02-04T12:37:01.099Z,100.00
2023-02-04T12:39:28.732Z,100.00
2023-02-04T12:41:55.371Z,100.00
2023-02-04T12:44:22.102Z,100.00
2023-02-04T12:46:48.955Z,100.00
2023-02-04T12:49:15.629Z,100.00
2023-02-04T12:51:42.329Z,100.00
2023-02-04T12:54:09.130Z,100.00
2023-02-04T12:56:35.888Z,100.00
2023-02-04T12:59:02.578Z,100.00
2023-02-04T13:01:29.279Z,100.00
2023-02-04T13:03:56.165Z,100.00
2023-02-04T13:06:22.939Z,100.00
2023-02-04T13:08:49.580Z,100.00
2023-02-04T13:11:16.234Z,100.00
2023-02-04T13:13:43.120Z,100.00
2023-02-04T13:16:09.867Z,97.75
2023-02-04T13:18:36.878Z,97.98
2023-02-04T13:21:03.774Z,96.28
2023-02-04T13:23:30.520Z,97.55
2023-02-04T13:25:57.198Z,96.60
2023-02-04T13:28:30.887Z,96.56
2023-02-04T13:30:58.411Z,97.28
2023-02-04T13:33:28.210Z,94.83
2023-02-04T13:35:55.138Z,95.56
2023-02-04T13:38:21.826Z,95.47
2023-02-04T13:40:48.584Z,94.93
2023-02-04T13:43:15.548Z,96.43
2023-02-04T13:45:47.944Z,97.28
2023-02-04T13:48:16.664Z,98.32
2023-02-04T13:50:53.416Z,98.38
2023-02-04T13:53:20.453Z,99.07
2023-02-04T13:55:47.850Z,100.00
2023-02-04T13:58:15.308Z,100.00
2023-02-04T14:00:42.235Z,100.00
2023-02-04T14:03:09.462Z,100.00
2023-02-04T14:05:36.168Z,100.00
2023-02-04T14:08:03.045Z,100.00
2023-02-04T14:10:30.319Z,100.00
2023-02-04T14:12:58.756Z,100.00
2023-02-04T14:15:26.479Z,100.00
2023-02-04T14:17:53.150Z,100.00
2023-02-04T14:20:29.403Z,100.00
2023-02-04T14:22:56.320Z,100.00
2023-02-04T14:25:33.271Z,100.00
2023-02-04T14:28:00.806Z,100.00
2023-02-04T14:30:30.251Z,100.00
2023-02-04T14:32:58.151Z,100.00
2023-02-04T14:35:25.936Z,100.00
2023-02-04T14:37:53.176Z,100.00
2023-02-04T14:40:20.916Z,100.00
2023-02-04T14:42:47.974Z,100.00
2023-02-04T14:45:15.143Z,100.00
2023-02-04T14:47:42.480Z,100.00
2023-02-04T14:50:13.610Z,100.00
2023-02-04T14:52:40.501Z,100.00
2023-02-04T14:55:09.804Z,100.00
2023-02-04T14:57:36.491Z,100.00
2023-02-04T15:00:05.690Z,100.00
2023-02-04T15:02:32.530Z,100.00
2023-02-04T15:04:59.230Z,100.00
2023-02-04T15:07:25.936Z,100.00
2023-02-04T15:09:52.667Z,100.00
2023-02-04T15:12:19.464Z,100.00
2023-02-04T15:14:46.370Z,100.00
2023-02-04T15:17:13.142Z,100.00
2023-02-04T15:19:39.799Z,100.00
2023-02-04T15:22:24.867Z,100.00
2023-02-04T15:24:51.851Z,100.00
2023-02-04T15:27:18.742Z,100.00
2023-02-04T15:29:46.180Z,100.00
2023-02-04T15:32:50.934Z,100.00
2023-02-04T15:35:28.806Z,100.00
2023-02-04T15:38:01.287Z,100.00
2023-02-04T15:40:41.665Z,100.00
2023-02-04T15:43:24.230Z,100.00
2023-02-04T15:45:53.110Z,100.00
2023-02-04T15:48:24.950Z,100.00
2023-02-04T15:50:55.796Z,100.00
2023-02-04T15:53:22.916Z,100.00
2023-02-04T15:55:49.946Z,100.00
2023-02-04T15:58:29.826Z,100.00
2023-02-04T16:00:57.933Z,100.00
2023-02-04T16:03:26.825Z,100.00
2023-02-04T16:05:56.734Z,100.00
2023-02-04T16:08:30.737Z,100.00
2023-02-04T16:10:59.867Z,100.00
2023-02-04T16:13:30.000Z,100.00
2023-02-04T16:15:56.799Z,100.00
2023-02-04T16:18:25.943Z,100.00
2023-02-04T16:20:53.783Z,100.00
2023-02-04T16:23:22.851Z,100.00
2023-02-04T16:25:50.720Z,100.00
2023-02-04T16:28:19.197Z,100.00
2023-02-04T16:30:49.606Z,100.00
2023-02-04T16:33:23.919Z,100.00
2023-02-04T16:35:58.735Z,100.00
2023-02-04T16:38:26.640Z,100.00
2023-02-04T16:40:57.470Z,100.00
2023-02-04T16:43:25.297Z,100.00
2023-02-04T16:45:53.183Z,100.00
2023-02-04T16:48:20.727Z,100.00
2023-02-04T16:50:48.651Z,100.00
2023-02-04T16:53:19.240Z,100.00
2023-02-04T16:55:48.539Z,100.00
2023-02-04T16:58:17.992Z,100.00
2023-02-04T17:01:02.429Z,100.00
2023-02-04T17:03:30.679Z,100.00
2023-02-04T17:06:02.584Z,100.00
2023-02-04T17:08:40.106Z,100.00
2023-02-04T17:11:32.590Z,100.00
2023-02-04T17:14:11.494Z,100.00
2023-02-04T17:16:49.198Z,100.00
2023-02-04T17:19:28.714Z,100.00
2023-02-04T17:22:05.188Z,100.00
2023-02-04T17:24:33.974Z,100.00
2023-02-04T17:27:03.571Z,100.00
2023-02-04T17:29:30.371Z,100.00
2023-02-04T17:31:58.202Z,100.00
2023-02-04T17:34:32.750Z,100.00
2023-02-04T17:37:03.586Z,100.00
2023-02-04T17:39:31.619Z,100.00
2023-02-04T17:42:09.173Z,100.00
2023-02-04T17:44:48.235Z,100.00
2023-02-04T17:47:17.145Z,100.00
2023-02-04T17:49:48.357Z,100.00
2023-02-04T17:52:16.260Z,100.00
2023-02-04T17:54:47.355Z,100.00
2023-02-04T17:57:51.613Z,100.00
2023-02-04T18:00:26.555Z,100.00
2023-02-04T18:02:54.121Z,100.00
2023-02-04T18:05:24.945Z,100.00
2023-02-04T18:08:25.091Z,100.00
2023-02-04T18:10:55.761Z,100.00
2023-02-04T18:13:32.809Z,100.00
2023-02-04T18:16:08.137Z,100.00
2023-02-04T18:18:36.505Z,100.00
2023-02-04T18:21:21.346Z,100.00
2023-02-04T18:24:18.555Z,100.00
2023-02-04T18:26:51.000Z,100.00
2023-02-04T18:29:26.495Z,100.00
2023-02-04T18:32:00.006Z,100.00
2023-02-04T18:34:42.504Z,100.00
2023-02-04T18:37:30.549Z,100.00
2023-02-04T18:40:18.322Z,100.00
2023-02-04T18:42:45.790Z,100.00
2023-02-04T18:45:57.034Z,100.00
2023-02-04T18:48:25.319Z,100.00
2023-02-04T18:50:58.147Z,100.00
2023-02-04T18:53:47.066Z,100.00
2023-02-04T18:56:37.975Z,100.00
2023-02-04T18:59:17.022Z,100.00
2023-02-04T19:02:39.334Z,100.00
2023-02-04T19:05:55.687Z,100.00
2023-02-04T19:09:44.136Z,100.00
2023-02-04T19:11:37.887Z,100.00
2023-02-04T19:14:39.266Z,100.00
2023-02-04T19:17:27.725Z,100.00
2023-02-04T19:20:37.530Z,100.00
2023-02-04T19:23:14.113Z,100.00
2023-02-04T19:25:55.106Z,100.00
2023-02-04T19:28:37.507Z,100.00
2023-02-04T19:31:09.550Z,100.00
2023-02-04T19:33:49.883Z,100.00
2023-02-04T19:36:34.996Z,100.00
2023-02-04T19:39:15.538Z,100.00
2023-02-04T19:41:45.732Z,100.00
2023-02-04T19:44:15.232Z,100.00
2023-02-04T19:46:46.186Z,100.00
2023-02-04T19:49:29.871Z,100.00
2023-02-04T19:52:00.155Z,100.00
2023-02-04T19:54:39.586Z,100.00
2023-02-04T19:57:26.062Z,100.00
2023-02-04T19:59:57.486Z,100.00
2023-02-04T20:02:36.557Z,100.00
2023-02-04T20:05:23.040Z,100.00
2023-02-04T20:08:18.638Z,100.00
2023-02-04T20:10:45.588Z,100.00
2023-02-04T20:13:20.058Z,100.00
2023-02-04T20:15:50.933Z,100.00
2023-02-04T20:18:20.150Z,100.00
2023-02-04T20:20:47.352Z,100.00
2023-02-04T20:23:34.723Z,100.00
2023-02-04T20:26:03.313Z,100.00
2023-02-04T20:28:41.414Z,100.00
2023-02-04T20:50:54.270Z,100.00
2023-02-04T20:53:24.037Z,100.00
2023-02-04T20:56:03.848Z,100.00
2023-02-04T20:58:39.839Z,100.00
2023-02-04T21:01:39.563Z,100.00
2023-02-04T21:04:34.521Z,100.00
2023-02-04T21:07:09.100Z,100.00
2023-02-04T21:09:41.730Z,100.00
2023-02-04T21:12:09.593Z,100.00
2023-02-04T21:14:36.705Z,100.00
2023-02-04T21:17:04.383Z,100.00
2023-02-04T21:19:34.196Z,100.00
2023-02-04T21:22:01.653Z,100.00
2023-02-04T21:24:33.877Z,100.00
2023-02-04T21:27:00.976Z,100.00
2023-02-04T21:29:27.995Z,100.00
2023-02-04T21:31:55.026Z,100.00
2023-02-04T21:34:29.664Z,100.00
2023-02-04T21:36:56.690Z,100.00
2023-02-04T21:39:32.631Z,100.00
2023-02-04T21:42:13.687Z,100.00
2023-02-04T21:44:40.727Z,100.00
2023-02-04T21:47:07.823Z,100.00
2023-02-04T21:49:39.481Z,100.00
2023-02-04T21:52:12.508Z,100.00
2023-02-04T21:54:39.434Z,100.00
2023-02-04T21:57:06.697Z,100.00
2023-02-04T21:59:33.890Z,100.00
2023-02-04T22:05:42.306Z,100.00
2023-02-04T22:08:09.338Z,100.00
2023-02-04T22:10:36.530Z,100.00
2023-02-04T22:13:04.027Z,100.00
2023-02-04T22:15:30.970Z,100.00
2023-02-04T22:17:58.027Z,100.00
2023-02-04T22:20:25.742Z,100.00
2023-02-04T22:22:53.580Z,100.00
2023-02-04T22:25:21.926Z,100.00
2023-02-04T22:27:50.057Z,100.00
2023-02-04T22:30:17.933Z,100.00
2023-02-04T22:32:45.285Z,100.00
2023-02-04T22:35:13.255Z,100.00
2023-02-04T22:37:42.532Z,100.00
2023-02-04T22:40:11.912Z,100.00
2023-02-04T22:42:41.903Z,100.00
2023-02-04T22:45:10.562Z,100.00
2023-02-04T22:47:38.392Z,100.00
2023-02-04T22:50:05.827Z,100.00
2023-02-04T22:52:32.866Z,100.00
2023-02-04T22:54:59.833Z,100.00
2023-02-04T22:57:26.660Z,100.00
2023-02-04T22:59:56.627Z,100.00
2023-02-04T23:02:23.500Z,100.00
2023-02-04T23:04:50.421Z,100.00
2023-02-04T23:07:17.892Z,100.00
2023-02-04T23:09:44.755Z,100.00
2023-02-04T23:12:15.226Z,100.00
2023-02-04T23:14:47.041Z,100.00
2023-02-04T23:17:16.307Z,100.00
2023-02-04T23:19:44.039Z,100.00
2023-02-04T23:22:12.758Z,100.00
2023-02-04T23:24:40.655Z,100.00
2023-02-04T23:27:09.366Z,100.00
2023-02-04T23:29:39.307Z,100.00
2023-02-04T23:32:06.213Z,100.00
2023-02-04T23:34:33.497Z,100.00
2023-02-04T23:37:03.576Z,100.00
2023-02-04T23:39:31.044Z,100.00
2023-02-04T23:41:58.206Z,100.00
2023-02-04T23:44:25.549Z,100.00
2023-02-04T23:46:52.611Z,100.00
2023-02-04T23:49:22.568Z,100.00
2023-02-04T23:51:49.316Z,100.00
2023-02-04T23:54:16.263Z,100.00
2023-02-04T23:56:43.149Z,100.00
2023-02-04T23:59:09.941Z,100.00
